createdAt,value
2022-11-01T00:00:46.898Z,15.37
2022-11-01T00:03:49.461Z,16.20
2022-11-01T00:06:51.948Z,15.87
2022-11-01T00:09:54.427Z,16.53
2022-11-01T00:12:58.369Z,16.27
2022-11-01T00:16:01.077Z,16.57
2022-11-01T00:19:03.566Z,15.20
2022-11-01T00:22:06.046Z,17.63
2022-11-01T00:25:13.039Z,18.83
2022-11-01T00:28:16.910Z,18.70
2022-11-01T00:31:20.944Z,17.33
2022-11-01T00:34:23.750Z,18.43
2022-11-01T00:37:26.717Z,17.90
2022-11-01T00:40:29.245Z,18.10
2022-11-01T00:43:34.008Z,18.07
2022-11-01T00:46:36.498Z,18.67
2022-11-01T00:49:38.984Z,18.87
2022-11-01T00:52:41.608Z,19.23
2022-11-01T00:55:44.165Z,17.73
2022-11-01T00:58:48.006Z,19.43
2022-11-01T01:01:50.782Z,20.63
2022-11-01T01:04:54.708Z,19.83
2022-11-01T01:07:57.453Z,19.37
2022-11-01T01:11:00.339Z,19.47
2022-11-01T01:14:04.207Z,20.40
2022-11-01T01:17:06.708Z,19.87
2022-11-01T01:20:10.668Z,19.43
2022-11-01T01:23:13.298Z,20.70
2022-11-01T01:26:15.777Z,20.80
2022-11-01T01:29:19.599Z,20.03
2022-11-01T01:32:24.668Z,21.13
2022-11-01T01:35:27.147Z,22.17
2022-11-01T01:38:29.897Z,19.70
2022-11-01T01:41:49.853Z,22.10
2022-11-01T01:45:24.804Z,21.47
2022-11-01T01:48:28.476Z,21.50
2022-11-01T01:51:31.092Z,21.70
2022-11-01T01:54:33.596Z,22.93
2022-11-01T01:57:37.616Z,21.77
2022-11-01T02:00:43.452Z,21.30
2022-11-01T02:03:46.114Z,21.63
2022-11-01T02:06:49.494Z,21.50
2022-11-01T02:09:52.498Z,23.00
2022-11-01T02:12:54.992Z,22.87
2022-11-01T02:16:15.797Z,22.30
2022-11-01T02:19:43.093Z,22.90
2022-11-01T02:23:09.905Z,22.73
2022-11-01T02:26:34.169Z,23.30
2022-11-01T02:30:15.388Z,21.93
2022-11-01T02:33:29.024Z,22.70
2022-11-01T02:36:36.842Z,23.23
2022-11-01T02:39:43.421Z,23.47
2022-11-01T02:42:49.564Z,22.97
2022-11-01T02:45:52.469Z,24.80
2022-11-01T02:48:58.818Z,23.60
2022-11-01T02:52:03.343Z,23.30
2022-11-01T02:55:29.504Z,23.33
2022-11-01T02:58:32.893Z,23.37
2022-11-01T03:01:37.314Z,24.20
2022-11-01T03:04:41.466Z,25.20
2022-11-01T03:07:49.150Z,24.17
2022-11-01T03:10:58.014Z,25.13
2022-11-01T03:14:05.435Z,24.80
2022-11-01T03:17:12.777Z,26.27
2022-11-01T03:20:24.584Z,24.93
2022-11-01T03:23:31.412Z,23.90
2022-11-01T03:26:36.063Z,26.13
2022-11-01T03:29:40.578Z,25.50
2022-11-01T03:32:47.812Z,24.97
2022-11-01T03:35:55.086Z,26.03
2022-11-01T03:39:00.714Z,25.93
2022-11-01T03:42:08.145Z,25.37
2022-11-01T03:45:13.324Z,25.43
2022-11-01T03:48:15.939Z,25.20
2022-11-01T03:51:19.784Z,25.03
2022-11-01T03:54:22.457Z,27.80
2022-11-01T03:57:25.016Z,26.27
2022-11-01T04:00:30.330Z,24.30
2022-11-01T04:03:32.821Z,25.80
2022-11-01T04:06:36.704Z,25.83
2022-11-01T04:09:39.180Z,26.17
2022-11-01T04:12:41.866Z,26.27
2022-11-01T04:16:02.057Z,26.90
2022-11-01T04:19:36.684Z,27.77
2022-11-01T04:22:40.547Z,27.30
2022-11-01T04:25:45.976Z,26.37
2022-11-01T04:28:56.910Z,27.10
2022-11-01T04:31:59.783Z,26.33
2022-11-01T04:35:02.331Z,24.07
2022-11-01T04:38:07.000Z,25.47
2022-11-01T04:41:09.604Z,25.77
2022-11-01T04:44:12.780Z,26.60
2022-11-01T04:47:15.296Z,25.83
2022-11-01T04:50:18.089Z,25.97
2022-11-01T04:53:21.916Z,25.27
2022-11-01T04:56:24.387Z,25.90
2022-11-01T04:59:26.859Z,26.03
2022-11-01T05:02:31.104Z,25.80
2022-11-01T05:05:33.882Z,27.43
2022-11-01T05:08:37.746Z,25.57
2022-11-01T05:11:40.224Z,27.13
2022-11-01T05:14:42.733Z,27.93
2022-11-01T05:17:45.212Z,26.20
2022-11-01T05:20:47.727Z,27.43
2022-11-01T05:23:51.569Z,27.63
2022-11-01T05:26:54.029Z,25.80
2022-11-01T05:29:56.629Z,26.87
2022-11-01T05:33:00.412Z,24.93
2022-11-01T05:36:02.952Z,25.33
2022-11-01T05:39:06.828Z,25.03
2022-11-01T05:42:09.328Z,27.00
2022-11-01T05:45:12.280Z,27.33
2022-11-01T05:48:14.784Z,24.87
2022-11-01T05:51:17.310Z,24.97
2022-11-01T05:54:21.121Z,27.50
2022-11-01T05:57:23.604Z,25.73
2022-11-01T06:00:26.088Z,26.90
2022-11-01T06:03:28.637Z,28.20
2022-11-01T06:06:31.560Z,26.43
2022-11-01T06:09:35.401Z,27.67
2022-11-01T06:12:37.917Z,26.63
2022-11-01T06:15:40.399Z,27.33
2022-11-01T06:18:43.948Z,26.63
2022-11-01T06:21:46.503Z,25.87
2022-11-01T06:24:50.576Z,26.77
2022-11-01T06:27:54.539Z,28.20
2022-11-01T06:30:57.174Z,27.60
2022-11-01T06:33:59.710Z,26.07
2022-11-01T06:37:02.230Z,26.80
2022-11-01T06:40:07.844Z,26.70
2022-11-01T06:43:10.516Z,27.93
2022-11-01T06:46:13.017Z,27.37
2022-11-01T06:49:18.880Z,25.90
2022-11-01T06:52:21.926Z,27.13
2022-11-01T06:55:26.256Z,26.93
2022-11-01T06:58:28.967Z,27.67
2022-11-01T07:01:31.634Z,27.73
2022-11-01T07:04:34.232Z,28.27
2022-11-01T07:07:36.741Z,27.90
2022-11-01T07:10:42.905Z,27.00
2022-11-01T07:13:45.387Z,27.87
2022-11-01T07:16:47.999Z,26.80
2022-11-01T07:19:50.488Z,28.37
2022-11-01T07:23:00.636Z,27.67
2022-11-01T07:26:05.099Z,26.57
2022-11-01T07:29:07.572Z,27.50
2022-11-01T07:32:10.067Z,27.80
2022-11-01T07:35:12.564Z,26.83
2022-11-01T07:38:15.701Z,25.77
2022-11-01T07:41:19.813Z,26.30
2022-11-01T07:44:22.308Z,26.10
2022-11-01T07:47:24.816Z,26.97
2022-11-01T07:50:27.282Z,26.57
2022-11-01T07:53:29.901Z,26.27
2022-11-01T07:56:33.995Z,25.07
2022-11-01T07:59:37.119Z,25.20
2022-11-01T08:02:39.827Z,25.53
2022-11-01T08:05:43.039Z,22.80
2022-11-01T08:08:45.968Z,23.37
2022-11-01T08:11:49.865Z,22.83
2022-11-01T08:14:52.357Z,22.40
2022-11-01T08:17:55.902Z,22.33
2022-11-01T08:20:59.495Z,22.07
2022-11-01T08:24:02.013Z,20.90
2022-11-01T08:27:05.856Z,21.13
2022-11-01T08:30:09.725Z,19.93
2022-11-01T08:33:12.608Z,20.50
2022-11-01T08:36:17.324Z,19.30
2022-11-01T08:39:19.790Z,17.47
2022-11-01T08:42:23.630Z,18.43
2022-11-01T08:45:26.709Z,16.47
2022-11-01T08:48:29.219Z,16.50
2022-11-01T08:51:32.641Z,16.00
2022-11-01T08:54:35.230Z,14.60
2022-11-01T08:57:39.227Z,14.30
2022-11-01T09:00:41.708Z,13.47
2022-11-01T09:03:44.257Z,13.47
2022-11-01T09:06:46.770Z,13.13
2022-11-01T09:09:49.241Z,11.73
2022-11-01T09:12:53.125Z,10.97
2022-11-01T09:15:59.939Z,10.20
2022-11-01T09:19:04.861Z,9.03
2022-11-01T09:22:08.615Z,7.83
2022-11-01T09:25:12.528Z,7.07
2022-11-01T09:28:16.396Z,6.73
2022-11-01T09:31:21.317Z,7.00
2022-11-01T09:34:24.181Z,6.43
2022-11-01T09:37:26.692Z,4.97
2022-11-01T09:40:32.890Z,6.00
2022-11-01T09:43:40.152Z,5.53
2022-11-01T09:46:46.670Z,5.67
2022-11-01T09:49:52.798Z,5.10
2022-11-01T09:52:56.952Z,5.30
2022-11-01T09:56:09.935Z,5.13
2022-11-01T09:59:26.492Z,5.30
2022-11-01T10:02:48.457Z,5.10
2022-11-01T10:05:59.909Z,5.67
2022-11-01T10:09:10.393Z,4.73
2022-11-01T10:12:23.825Z,5.17
2022-11-01T10:15:41.957Z,5.03
2022-11-01T10:18:53.268Z,4.13
2022-11-01T10:22:01.161Z,4.60
2022-11-01T10:25:07.952Z,4.33
2022-11-01T10:28:19.268Z,4.40
2022-11-01T10:31:27.254Z,3.80
2022-11-01T10:34:36.135Z,3.80
2022-11-01T10:37:52.001Z,4.00
2022-11-01T10:41:23.811Z,3.80
2022-11-01T10:44:31.245Z,3.73
2022-11-01T10:47:35.404Z,4.17
2022-11-01T10:50:39.265Z,3.97
2022-11-01T10:53:44.868Z,3.20
2022-11-01T10:56:51.229Z,3.93
2022-11-01T10:59:56.895Z,3.40
2022-11-01T11:03:08.773Z,3.00
2022-11-01T11:06:15.404Z,3.03
2022-11-01T11:09:23.973Z,3.60
2022-11-01T11:12:27.747Z,3.20
2022-11-01T11:15:38.459Z,3.20
2022-11-01T11:19:01.464Z,3.40
2022-11-01T11:22:07.799Z,3.13
2022-11-01T11:25:16.612Z,2.40
2022-11-01T11:28:25.584Z,2.40
2022-11-01T11:31:31.419Z,2.03
2022-11-01T11:34:37.981Z,1.70
2022-11-01T11:37:41.405Z,1.80
2022-11-01T11:40:45.632Z,1.67
2022-11-01T11:43:48.177Z,1.40
2022-11-01T11:46:58.043Z,1.33
2022-11-01T11:50:24.061Z,1.17
2022-11-01T11:53:29.157Z,1.23
2022-11-01T11:56:31.718Z,1.60
2022-11-01T11:59:35.324Z,1.40
2022-11-01T12:02:41.363Z,1.30
2022-11-01T12:05:55.227Z,1.48
2022-11-01T12:08:59.125Z,1.13
2022-11-01T12:12:08.028Z,1.58
2022-11-01T12:15:28.996Z,1.33
2022-11-01T12:18:31.506Z,1.50
2022-11-01T12:21:38.189Z,1.35
2022-11-01T12:24:46.393Z,1.50
2022-11-01T12:27:55.948Z,1.73
2022-11-01T12:31:04.048Z,1.98
2022-11-01T12:34:17.107Z,1.88
2022-11-01T12:37:25.480Z,1.67
2022-11-01T12:40:30.776Z,1.65
2022-11-01T12:43:42.766Z,1.70
2022-11-01T12:46:49.834Z,1.90
2022-11-01T12:49:56.625Z,1.70
2022-11-01T12:53:05.998Z,1.88
2022-11-01T12:56:08.763Z,1.65
2022-11-01T12:59:14.776Z,1.95
2022-11-01T13:02:37.891Z,2.25
2022-11-01T13:05:51.015Z,1.70
2022-11-01T13:09:03.076Z,1.80
2022-11-01T13:12:11.665Z,2.08
2022-11-01T13:15:22.902Z,1.85
2022-11-01T13:18:38.721Z,2.00
2022-11-01T13:21:49.416Z,2.08
2022-11-01T13:25:02.858Z,1.95
2022-11-01T13:28:16.954Z,2.00
2022-11-01T13:31:31.296Z,2.10
2022-11-01T13:34:42.942Z,2.03
2022-11-01T13:37:48.858Z,2.00
2022-11-01T13:41:03.215Z,1.85
2022-11-01T13:44:13.280Z,2.00
2022-11-01T13:47:30.583Z,1.77
2022-11-01T13:50:48.985Z,1.75
2022-11-01T13:53:58.664Z,2.20
2022-11-01T13:57:12.541Z,2.15
2022-11-01T14:00:37.160Z,2.08
2022-11-01T14:03:39.940Z,1.95
2022-11-01T14:06:43.752Z,1.95
2022-11-01T14:09:48.648Z,2.08
2022-11-01T14:13:15.318Z,1.80
2022-11-01T14:16:23.637Z,2.47
2022-11-01T14:19:27.213Z,2.00
2022-11-01T14:22:32.593Z,2.60
2022-11-01T14:25:35.091Z,2.47
2022-11-01T14:28:43.553Z,2.00
2022-11-01T14:31:47.834Z,2.03
2022-11-01T14:34:59.771Z,1.83
2022-11-01T14:38:07.603Z,2.40
2022-11-01T14:41:14.080Z,1.70
2022-11-01T14:44:25.761Z,2.23
2022-11-01T14:47:36.463Z,1.97
2022-11-01T14:50:51.426Z,2.60
2022-11-01T14:54:02.389Z,1.60
2022-11-01T14:57:20.670Z,2.10
2022-11-01T15:00:29.785Z,2.23
2022-11-01T15:03:33.089Z,2.07
2022-11-01T15:06:36.549Z,1.80
2022-11-01T15:09:39.063Z,2.50
2022-11-01T15:12:48.021Z,2.10
2022-11-01T15:16:02.816Z,2.27
2022-11-01T15:19:08.689Z,2.10
2022-11-01T15:22:17.641Z,2.27
2022-11-01T15:25:22.136Z,2.30
2022-11-01T15:28:27.143Z,2.17
2022-11-01T15:31:32.262Z,2.77
2022-11-01T15:34:36.376Z,1.73
2022-11-01T15:37:39.240Z,2.30
2022-11-01T15:40:42.545Z,2.30
2022-11-01T15:43:52.003Z,2.63
2022-11-01T15:46:58.963Z,2.17
2022-11-01T15:50:06.024Z,2.13
2022-11-01T15:53:11.039Z,2.57
2022-11-01T15:56:20.463Z,2.90
2022-11-01T15:59:27.715Z,2.33
2022-11-01T16:02:39.977Z,1.77
2022-11-01T16:05:48.784Z,1.83
2022-11-01T16:08:55.669Z,2.10
2022-11-01T16:11:59.945Z,2.40
2022-11-01T16:15:06.286Z,2.20
2022-11-01T16:18:17.755Z,2.00
2022-11-01T16:21:27.719Z,2.07
2022-11-01T16:24:30.299Z,2.63
2022-11-01T16:27:33.608Z,2.20
2022-11-01T16:30:40.616Z,2.17
2022-11-01T16:33:46.004Z,2.20
2022-11-01T16:36:48.656Z,2.37
2022-11-01T16:39:52.012Z,2.37
2022-11-01T16:42:56.665Z,2.50
2022-11-01T16:45:59.907Z,2.97
2022-11-01T16:49:19.117Z,2.20
2022-11-01T16:52:22.442Z,2.37
2022-11-01T16:55:28.451Z,2.27
2022-11-01T16:58:33.971Z,3.03
2022-11-01T17:01:36.797Z,3.40
2022-11-01T17:04:41.157Z,2.40
2022-11-01T17:07:43.656Z,2.87
2022-11-01T17:10:46.226Z,2.97
2022-11-01T17:13:49.016Z,2.80
2022-11-01T17:16:53.363Z,3.50
2022-11-01T17:20:01.542Z,4.43
2022-11-01T17:23:05.676Z,4.53
2022-11-01T17:26:11.162Z,3.20
2022-11-01T17:29:15.068Z,3.43
2022-11-01T17:32:17.637Z,4.07
2022-11-01T17:35:24.293Z,4.67
2022-11-01T17:38:31.961Z,5.00
2022-11-01T17:41:34.501Z,4.43
2022-11-01T17:44:37.418Z,3.27
2022-11-01T17:47:40.422Z,3.20
2022-11-01T17:50:44.849Z,4.90
2022-11-01T17:53:47.404Z,4.67
2022-11-01T17:56:50.851Z,4.87
2022-11-01T17:59:53.465Z,4.83
2022-11-01T18:02:56.018Z,4.33
2022-11-01T18:06:00.817Z,3.37
2022-11-01T18:09:05.534Z,4.53
2022-11-01T18:12:13.449Z,4.53
2022-11-01T18:15:22.125Z,4.83
2022-11-01T18:18:38.448Z,5.40
2022-11-01T18:21:52.909Z,5.27
2022-11-01T18:24:59.952Z,4.50
2022-11-01T18:28:11.709Z,3.47
2022-11-01T18:31:21.951Z,3.50
2022-11-01T18:34:31.950Z,3.17
2022-11-01T18:37:43.576Z,3.60
2022-11-01T18:40:56.535Z,3.97
2022-11-01T18:43:59.995Z,5.00
2022-11-01T18:47:07.806Z,4.03
2022-11-01T18:50:20.845Z,3.90
2022-11-01T18:53:25.098Z,4.30
2022-11-01T18:56:27.674Z,4.03
2022-11-01T18:59:32.444Z,3.23
2022-11-01T19:02:35.842Z,4.07
2022-11-01T19:05:38.484Z,4.90
2022-11-01T19:08:42.396Z,3.67
2022-11-01T19:11:45.067Z,3.60
2022-11-01T19:14:52.886Z,3.40
2022-11-01T19:18:02.705Z,3.33
2022-11-01T19:21:15.182Z,3.73
2022-11-01T19:24:31.521Z,4.07
2022-11-01T19:27:34.065Z,4.37
2022-11-01T19:30:36.614Z,3.67
2022-11-01T19:33:40.047Z,3.47
2022-11-01T19:36:44.373Z,3.23
2022-11-01T19:39:48.530Z,5.07
2022-11-01T19:42:51.085Z,4.80
2022-11-01T19:45:55.127Z,4.20
2022-11-01T19:48:57.678Z,4.33
2022-11-01T19:52:18.266Z,4.30
2022-11-01T19:55:39.959Z,3.23
2022-11-01T19:58:45.316Z,3.10
2022-11-01T20:01:48.288Z,2.97
2022-11-01T20:04:56.229Z,3.40
2022-11-01T20:08:10.397Z,3.87
2022-11-01T20:11:14.318Z,3.97
2022-11-01T20:14:17.030Z,4.73
2022-11-01T20:17:19.833Z,3.00
2022-11-01T20:20:22.366Z,2.57
2022-11-01T20:23:26.676Z,2.67
2022-11-01T20:26:32.061Z,2.67
2022-11-01T20:29:34.605Z,2.70
2022-11-01T20:32:37.776Z,3.60
2022-11-01T20:35:40.320Z,3.58
2022-11-01T20:38:42.911Z,3.23
2022-11-01T20:41:46.973Z,3.27
2022-11-01T20:44:50.012Z,3.50
2022-11-01T20:47:52.618Z,3.23
2022-11-01T20:50:55.168Z,2.90
2022-11-01T20:53:58.125Z,3.40
2022-11-01T20:57:02.439Z,3.33
2022-11-01T21:00:05.399Z,3.83
2022-11-01T21:03:15.612Z,2.63
2022-11-01T21:06:19.334Z,2.73
2022-11-01T21:09:30.091Z,3.10
2022-11-01T21:12:44.642Z,2.97
2022-11-01T21:15:47.244Z,2.73
2022-11-01T21:18:53.422Z,3.07
2022-11-01T21:21:58.131Z,3.20
2022-11-01T21:25:01.149Z,3.07
2022-11-01T21:28:15.587Z,2.50
2022-11-01T21:31:27.415Z,2.50
2022-11-01T21:34:31.979Z,2.60
2022-11-01T21:37:34.529Z,2.70
2022-11-01T21:40:37.350Z,2.37
2022-11-01T21:43:41.318Z,2.33
2022-11-01T21:46:48.141Z,2.90
2022-11-01T21:49:51.227Z,2.57
2022-11-01T21:52:53.776Z,2.03
2022-11-01T21:55:56.340Z,2.50
2022-11-01T21:59:00.275Z,2.27
2022-11-01T22:02:04.406Z,2.10
2022-11-01T22:05:07.728Z,2.37
2022-11-01T22:08:10.261Z,2.27
2022-11-01T22:11:12.810Z,2.50
2022-11-01T22:14:16.729Z,2.03
2022-11-01T22:17:19.282Z,2.20
2022-11-01T22:20:21.848Z,3.00
2022-11-01T22:23:24.379Z,2.33
2022-11-01T22:26:27.129Z,2.47
2022-11-01T22:29:31.018Z,1.97
2022-11-01T22:32:33.583Z,2.37
2022-11-01T22:35:36.192Z,2.10
2022-11-01T22:38:41.353Z,2.20
2022-11-01T22:41:44.543Z,2.13
2022-11-01T22:44:51.109Z,2.00
2022-11-01T22:47:53.672Z,2.23
2022-11-01T22:50:56.190Z,2.43
2022-11-01T22:54:00.318Z,2.10
2022-11-01T22:57:12.984Z,2.53
2022-11-01T23:00:28.003Z,2.10
2022-11-01T23:03:36.473Z,2.20
2022-11-01T23:06:39.045Z,2.27
2022-11-01T23:09:45.188Z,2.43
2022-11-01T23:13:05.762Z,1.97
2022-11-01T23:16:23.018Z,2.33
2022-11-01T23:19:25.618Z,2.17
2022-11-01T23:22:34.037Z,2.13
2022-11-01T23:25:36.645Z,2.37
2022-11-01T23:28:42.151Z,2.03
2022-11-01T23:31:46.291Z,1.87
2022-11-01T23:34:50.333Z,1.90
2022-11-01T23:37:54.778Z,1.90
2022-11-01T23:40:58.476Z,1.70
2022-11-01T23:44:03.610Z,1.90
2022-11-01T23:47:20.607Z,1.83
2022-11-01T23:50:28.407Z,2.10
2022-11-01T23:53:34.895Z,1.77
2022-11-01T23:56:44.716Z,2.03
2022-11-01T23:59:48.030Z,1.93
